sensor_id;sensor_type;location;lat;lon;timestamp;temperature;humidity
29939;DHT22;16799;50.844;5.304;2024-03-07T00:00:57;6.20;99.90
29939;DHT22;16799;50.844;5.304;2024-03-07T00:03:25;6.20;99.90
29939;DHT22;16799;50.844;5.304;2024-03-07T00:05:51;6.00;99.90
29939;DHT22;16799;50.844;5.304;2024-03-07T00:08:17;6.10;99.90
29939;DHT22;16799;50.844;5.304;2024-03-07T00:10:42;6.00;99.90
29939;DHT22;16799;50.844;5.304;2024-03-07T00:13:09;6.00;99.90
29939;DHT22;16799;50.844;5.304;2024-03-07T00:15:35;5.80;99.90
29939;DHT22;16799;50.844;5.304;2024-03-07T00:18:02;5.90;99.90
29939;DHT22;16799;50.844;5.304;2024-03-07T00:20:27;6.00;99.90
29939;DHT22;16799;50.844;5.304;2024-03-07T00:22:53;5.90;99.90
29939;DHT22;16799;50.844;5.304;2024-03-07T00:25:19;5.80;99.90
29939;DHT22;16799;50.844;5.304;2024-03-07T00:27:45;5.80;99.90
29939;DHT22;16799;50.844;5.304;2024-03-07T00:30:11;5.80;99.90
29939;DHT22;16799;50.844;5.304;2024-03-07T00:32:39;5.80;99.90
29939;DHT22;16799;50.844;5.304;2024-03-07T00:35:08;5.60;99.90
29939;DHT22;16799;50.844;5.304;2024-03-07T00:37:34;5.70;99.90
29939;DHT22;16799;50.844;5.304;2024-03-07T00:40:00;5.80;99.90
29939;DHT22;16799;50.844;5.304;2024-03-07T00:42:26;5.80;99.90
29939;DHT22;16799;50.844;5.304;2024-03-07T00:44:53;5.80;99.90
29939;DHT22;16799;50.844;5.304;2024-03-07T00:47:18;5.70;99.90
29939;DHT22;16799;50.844;5.304;2024-03-07T00:49:45;5.70;99.90
29939;DHT22;16799;50.844;5.304;2024-03-07T00:52:14;5.70;99.90
29939;DHT22;16799;50.844;5.304;2024-03-07T00:54:40;5.70;99.90
29939;DHT22;16799;50.844;5.304;2024-03-07T00:57:07;5.60;99.90
29939;DHT22;16799;50.844;5.304;2024-03-07T00:59:33;5.70;99.90
29939;DHT22;16799;50.844;5.304;2024-03-07T01:01:59;5.60;99.90
29939;DHT22;16799;50.844;5.304;2024-03-07T01:04:25;5.60;99.90
29939;DHT22;16799;50.844;5.304;2024-03-07T01:06:59;5.70;99.90
29939;DHT22;16799;50.844;5.304;2024-03-07T01:09:28;5.90;99.90
29939;DHT22;16799;50.844;5.304;2024-03-07T01:11:54;5.80;99.90
29939;DHT22;16799;50.844;5.304;2024-03-07T01:14:21;5.70;99.90
29939;DHT22;16799;50.844;5.304;2024-03-07T01:16:46;5.60;99.90
29939;DHT22;16799;50.844;5.304;2024-03-07T01:19:12;5.60;99.90
29939;DHT22;16799;50.844;5.304;2024-03-07T01:21:38;5.40;99.90
29939;DHT22;16799;50.844;5.304;2024-03-07T01:24:04;5.30;99.90
29939;DHT22;16799;50.844;5.304;2024-03-07T01:26:30;5.30;99.90
29939;DHT22;16799;50.844;5.304;2024-03-07T01:28:59;5.20;99.90
29939;DHT22;16799;50.844;5.304;2024-03-07T01:31:24;5.10;99.90
29939;DHT22;16799;50.844;5.304;2024-03-07T01:33:50;5.10;99.90
29939;DHT22;16799;50.844;5.304;2024-03-07T01:36:16;5.10;99.90
29939;DHT22;16799;50.844;5.304;2024-03-07T01:38:42;5.10;99.90
29939;DHT22;16799;50.844;5.304;2024-03-07T01:41:08;4.80;99.90
29939;DHT22;16799;50.844;5.304;2024-03-07T01:43:34;4.60;99.90
29939;DHT22;16799;50.844;5.304;2024-03-07T01:46:00;4.40;99.90
29939;DHT22;16799;50.844;5.304;2024-03-07T01:48:29;4.40;99.90
29939;DHT22;16799;50.844;5.304;2024-03-07T01:50:58;4.40;99.90
29939;DHT22;16799;50.844;5.304;2024-03-07T01:53:25;4.20;99.90
29939;DHT22;16799;50.844;5.304;2024-03-07T01:55:51;4.10;99.90
29939;DHT22;16799;50.844;5.304;2024-03-07T01:58:19;4.10;99.90
29939;DHT22;16799;50.844;5.304;2024-03-07T02:00:46;4.20;99.90
29939;DHT22;16799;50.844;5.304;2024-03-07T02:03:13;4.30;99.90
29939;DHT22;16799;50.844;5.304;2024-03-07T02:05:39;4.20;99.90
29939;DHT22;16799;50.844;5.304;2024-03-07T02:08:05;4.30;99.90
29939;DHT22;16799;50.844;5.304;2024-03-07T02:10:31;4.30;99.90
29939;DHT22;16799;50.844;5.304;2024-03-07T02:12:57;4.40;99.90
29939;DHT22;16799;50.844;5.304;2024-03-07T02:15:23;4.30;99.90
29939;DHT22;16799;50.844;5.304;2024-03-07T02:17:48;4.20;99.90
29939;DHT22;16799;50.844;5.304;2024-03-07T02:20:14;4.20;99.90
29939;DHT22;16799;50.844;5.304;2024-03-07T02:22:41;4.20;99.90
29939;DHT22;16799;50.844;5.304;2024-03-07T02:25:07;4.10;99.90
29939;DHT22;16799;50.844;5.304;2024-03-07T02:27:36;4.00;99.90
29939;DHT22;16799;50.844;5.304;2024-03-07T02:30:02;4.00;99.90
29939;DHT22;16799;50.844;5.304;2024-03-07T02:32:31;4.10;99.90
29939;DHT22;16799;50.844;5.304;2024-03-07T02:34:57;4.30;99.90
29939;DHT22;16799;50.844;5.304;2024-03-07T02:37:22;4.30;99.90
29939;DHT22;16799;50.844;5.304;2024-03-07T02:39:48;4.20;99.90
29939;DHT22;16799;50.844;5.304;2024-03-07T02:42:14;4.10;99.90
29939;DHT22;16799;50.844;5.304;2024-03-07T02:44:39;4.20;99.90
29939;DHT22;16799;50.844;5.304;2024-03-07T02:47:06;4.30;99.90
29939;DHT22;16799;50.844;5.304;2024-03-07T02:49:32;4.40;99.90
29939;DHT22;16799;50.844;5.304;2024-03-07T02:51:58;4.30;99.90
29939;DHT22;16799;50.844;5.304;2024-03-07T02:54:24;4.20;99.90
29939;DHT22;16799;50.844;5.304;2024-03-07T02:56:49;4.20;99.90
29939;DHT22;16799;50.844;5.304;2024-03-07T02:59:15;3.90;99.90
29939;DHT22;16799;50.844;5.304;2024-03-07T03:01:42;4.00;99.90
29939;DHT22;16799;50.844;5.304;2024-03-07T03:04:07;3.70;99.90
29939;DHT22;16799;50.844;5.304;2024-03-07T03:06:33;3.30;99.90
29939;DHT22;16799;50.844;5.304;2024-03-07T03:08:59;3.50;99.90
29939;DHT22;16799;50.844;5.304;2024-03-07T03:11:25;3.30;99.90
29939;DHT22;16799;50.844;5.304;2024-03-07T03:13:51;3.50;99.90
29939;DHT22;16799;50.844;5.304;2024-03-07T03:16:17;3.40;99.90
29939;DHT22;16799;50.844;5.304;2024-03-07T03:18:43;3.50;99.90
29939;DHT22;16799;50.844;5.304;2024-03-07T03:21:08;3.50;99.90
29939;DHT22;16799;50.844;5.304;2024-03-07T03:23:34;3.40;99.90
29939;DHT22;16799;50.844;5.304;2024-03-07T03:26:00;3.50;99.90
29939;DHT22;16799;50.844;5.304;2024-03-07T03:28:26;3.40;99.90
29939;DHT22;16799;50.844;5.304;2024-03-07T03:30:51;3.40;99.90
29939;DHT22;16799;50.844;5.304;2024-03-07T03:33:18;3.30;99.90
29939;DHT22;16799;50.844;5.304;2024-03-07T03:35:44;3.30;99.90
29939;DHT22;16799;50.844;5.304;2024-03-07T03:38:10;3.30;99.90
29939;DHT22;16799;50.844;5.304;2024-03-07T03:40:36;3.40;99.90
29939;DHT22;16799;50.844;5.304;2024-03-07T03:43:02;3.30;99.90
29939;DHT22;16799;50.844;5.304;2024-03-07T03:45:28;3.30;99.90
29939;DHT22;16799;50.844;5.304;2024-03-07T03:47:54;3.20;99.90
29939;DHT22;16799;50.844;5.304;2024-03-07T03:50:20;3.30;99.90
29939;DHT22;16799;50.844;5.304;2024-03-07T03:52:46;3.50;99.90
29939;DHT22;16799;50.844;5.304;2024-03-07T03:55:11;3.60;99.90
29939;DHT22;16799;50.844;5.304;2024-03-07T03:57:39;3.20;99.90
29939;DHT22;16799;50.844;5.304;2024-03-07T04:00:06;3.20;99.90
29939;DHT22;16799;50.844;5.304;2024-03-07T04:02:47;3.10;99.90
29939;DHT22;16799;50.844;5.304;2024-03-07T04:05:14;3.20;99.90
29939;DHT22;16799;50.844;5.304;2024-03-07T04:07:40;3.30;99.90
29939;DHT22;16799;50.844;5.304;2024-03-07T04:10:08;3.20;99.90
29939;DHT22;16799;50.844;5.304;2024-03-07T04:12:38;3.30;99.90
29939;DHT22;16799;50.844;5.304;2024-03-07T04:15:06;3.30;99.90
29939;DHT22;16799;50.844;5.304;2024-03-07T04:17:33;3.20;99.90
29939;DHT22;16799;50.844;5.304;2024-03-07T04:20:05;3.20;99.90
29939;DHT22;16799;50.844;5.304;2024-03-07T04:22:34;3.00;99.90
29939;DHT22;16799;50.844;5.304;2024-03-07T04:25:03;2.90;99.90
29939;DHT22;16799;50.844;5.304;2024-03-07T04:27:29;2.90;99.90
29939;DHT22;16799;50.844;5.304;2024-03-07T04:29:56;2.80;99.90
29939;DHT22;16799;50.844;5.304;2024-03-07T04:32:21;2.70;99.90
29939;DHT22;16799;50.844;5.304;2024-03-07T04:34:47;2.60;99.90
29939;DHT22;16799;50.844;5.304;2024-03-07T04:37:14;2.60;99.90
29939;DHT22;16799;50.844;5.304;2024-03-07T04:39:40;2.60;99.90
29939;DHT22;16799;50.844;5.304;2024-03-07T04:42:07;2.50;99.90
29939;DHT22;16799;50.844;5.304;2024-03-07T04:44:34;2.40;99.90
29939;DHT22;16799;50.844;5.304;2024-03-07T04:47:01;2.50;99.90
29939;DHT22;16799;50.844;5.304;2024-03-07T04:49:29;2.60;99.90
29939;DHT22;16799;50.844;5.304;2024-03-07T04:51:57;2.60;99.90
29939;DHT22;16799;50.844;5.304;2024-03-07T04:54:27;2.70;99.90
29939;DHT22;16799;50.844;5.304;2024-03-07T04:56:53;2.60;99.90
29939;DHT22;16799;50.844;5.304;2024-03-07T04:59:20;2.60;99.90
29939;DHT22;16799;50.844;5.304;2024-03-07T05:01:47;2.60;99.90
29939;DHT22;16799;50.844;5.304;2024-03-07T05:04:14;2.60;99.90
29939;DHT22;16799;50.844;5.304;2024-03-07T05:06:40;2.70;99.90
29939;DHT22;16799;50.844;5.304;2024-03-07T05:09:07;2.50;99.90
29939;DHT22;16799;50.844;5.304;2024-03-07T05:11:34;2.50;99.90
29939;DHT22;16799;50.844;5.304;2024-03-07T05:14:00;2.50;99.90
29939;DHT22;16799;50.844;5.304;2024-03-07T05:16:27;2.60;99.90
29939;DHT22;16799;50.844;5.304;2024-03-07T05:18:53;2.80;99.90
29939;DHT22;16799;50.844;5.304;2024-03-07T05:21:19;2.80;99.90
29939;DHT22;16799;50.844;5.304;2024-03-07T05:24:06;2.80;99.90
29939;DHT22;16799;50.844;5.304;2024-03-07T05:26:36;2.70;99.90
29939;DHT22;16799;50.844;5.304;2024-03-07T05:29:09;2.60;99.90
29939;DHT22;16799;50.844;5.304;2024-03-07T05:31:37;2.60;99.90
29939;DHT22;16799;50.844;5.304;2024-03-07T05:34:04;2.50;99.90
29939;DHT22;16799;50.844;5.304;2024-03-07T05:36:34;2.50;99.90
29939;DHT22;16799;50.844;5.304;2024-03-07T05:39:00;2.30;99.90
29939;DHT22;16799;50.844;5.304;2024-03-07T05:41:26;2.30;99.90
29939;DHT22;16799;50.844;5.304;2024-03-07T05:43:55;2.40;99.90
29939;DHT22;16799;50.844;5.304;2024-03-07T05:46:21;2.50;99.90
29939;DHT22;16799;50.844;5.304;2024-03-07T05:48:47;2.50;99.90
29939;DHT22;16799;50.844;5.304;2024-03-07T05:51:18;2.70;99.90
29939;DHT22;16799;50.844;5.304;2024-03-07T05:53:43;2.90;99.90
29939;DHT22;16799;50.844;5.304;2024-03-07T05:56:09;3.00;99.90
29939;DHT22;16799;50.844;5.304;2024-03-07T05:58:35;3.10;99.90
29939;DHT22;16799;50.844;5.304;2024-03-07T06:01:00;3.30;99.90
29939;DHT22;16799;50.844;5.304;2024-03-07T06:03:26;3.40;99.90
29939;DHT22;16799;50.844;5.304;2024-03-07T06:05:52;3.60;99.90
29939;DHT22;16799;50.844;5.304;2024-03-07T06:08:20;3.70;99.90
29939;DHT22;16799;50.844;5.304;2024-03-07T06:10:47;3.90;99.90
29939;DHT22;16799;50.844;5.304;2024-03-07T06:13:15;4.00;99.90
29939;DHT22;16799;50.844;5.304;2024-03-07T06:15:44;4.00;99.90
29939;DHT22;16799;50.844;5.304;2024-03-07T06:18:10;4.00;99.90
29939;DHT22;16799;50.844;5.304;2024-03-07T06:20:44;3.90;99.90
29939;DHT22;16799;50.844;5.304;2024-03-07T06:23:10;3.90;99.90
29939;DHT22;16799;50.844;5.304;2024-03-07T06:25:41;4.00;99.90
29939;DHT22;16799;50.844;5.304;2024-03-07T06:28:16;4.20;99.90
29939;DHT22;16799;50.844;5.304;2024-03-07T06:30:44;4.20;99.90
29939;DHT22;16799;50.844;5.304;2024-03-07T06:33:10;4.30;99.90
29939;DHT22;16799;50.844;5.304;2024-03-07T06:35:37;4.30;99.90
29939;DHT22;16799;50.844;5.304;2024-03-07T06:38:07;4.30;99.90
29939;DHT22;16799;50.844;5.304;2024-03-07T06:40:34;4.40;99.90
29939;DHT22;16799;50.844;5.304;2024-03-07T06:43:00;4.00;99.90
29939;DHT22;16799;50.844;5.304;2024-03-07T06:45:26;4.20;99.90
29939;DHT22;16799;50.844;5.304;2024-03-07T06:47:52;4.40;99.90
29939;DHT22;16799;50.844;5.304;2024-03-07T06:50:18;4.30;99.90
29939;DHT22;16799;50.844;5.304;2024-03-07T06:52:48;4.50;99.90
29939;DHT22;16799;50.844;5.304;2024-03-07T06:55:15;4.60;99.90
29939;DHT22;16799;50.844;5.304;2024-03-07T06:57:43;4.50;99.90
29939;DHT22;16799;50.844;5.304;2024-03-07T07:00:09;4.40;99.90
29939;DHT22;16799;50.844;5.304;2024-03-07T07:02:43;4.40;99.90
29939;DHT22;16799;50.844;5.304;2024-03-07T07:05:10;4.40;99.90
29939;DHT22;16799;50.844;5.304;2024-03-07T07:07:41;4.40;99.90
29939;DHT22;16799;50.844;5.304;2024-03-07T07:10:08;4.30;99.90
29939;DHT22;16799;50.844;5.304;2024-03-07T07:12:37;4.20;99.90
29939;DHT22;16799;50.844;5.304;2024-03-07T07:15:03;4.40;99.90
29939;DHT22;16799;50.844;5.304;2024-03-07T07:17:29;4.50;99.90
29939;DHT22;16799;50.844;5.304;2024-03-07T07:19:57;4.60;99.90
29939;DHT22;16799;50.844;5.304;2024-03-07T07:22:24;4.60;99.90
29939;DHT22;16799;50.844;5.304;2024-03-07T07:24:49;4.40;99.90
29939;DHT22;16799;50.844;5.304;2024-03-07T07:27:15;4.60;99.90
29939;DHT22;16799;50.844;5.304;2024-03-07T07:29:41;4.50;99.90
29939;DHT22;16799;50.844;5.304;2024-03-07T07:32:07;4.70;99.90
29939;DHT22;16799;50.844;5.304;2024-03-07T07:34:33;4.70;99.90
29939;DHT22;16799;50.844;5.304;2024-03-07T07:36:59;4.50;99.90
29939;DHT22;16799;50.844;5.304;2024-03-07T07:39:24;4.60;99.90
29939;DHT22;16799;50.844;5.304;2024-03-07T07:41:50;4.50;99.90
29939;DHT22;16799;50.844;5.304;2024-03-07T07:44:16;4.60;99.90
29939;DHT22;16799;50.844;5.304;2024-03-07T07:46:42;4.70;99.90
29939;DHT22;16799;50.844;5.304;2024-03-07T07:49:09;4.90;99.90
29939;DHT22;16799;50.844;5.304;2024-03-07T07:51:34;5.00;99.90
29939;DHT22;16799;50.844;5.304;2024-03-07T07:54:00;5.00;99.90
29939;DHT22;16799;50.844;5.304;2024-03-07T07:56:26;5.20;99.90
29939;DHT22;16799;50.844;5.304;2024-03-07T07:58:53;5.50;99.90
29939;DHT22;16799;50.844;5.304;2024-03-07T08:01:19;5.70;99.90
29939;DHT22;16799;50.844;5.304;2024-03-07T08:03:45;5.70;99.90
29939;DHT22;16799;50.844;5.304;2024-03-07T08:06:11;5.90;99.90
29939;DHT22;16799;50.844;5.304;2024-03-07T08:08:37;6.20;99.90
29939;DHT22;16799;50.844;5.304;2024-03-07T08:11:03;6.30;99.90
29939;DHT22;16799;50.844;5.304;2024-03-07T08:13:28;6.50;99.90
29939;DHT22;16799;50.844;5.304;2024-03-07T08:15:54;6.40;99.90
29939;DHT22;16799;50.844;5.304;2024-03-07T08:18:20;6.40;99.90
29939;DHT22;16799;50.844;5.304;2024-03-07T08:20:46;6.60;99.90
29939;DHT22;16799;50.844;5.304;2024-03-07T08:23:12;6.60;99.90
29939;DHT22;16799;50.844;5.304;2024-03-07T08:25:41;6.70;99.90
29939;DHT22;16799;50.844;5.304;2024-03-07T08:28:07;7.10;99.90
29939;DHT22;16799;50.844;5.304;2024-03-07T08:30:33;7.20;99.90
29939;DHT22;16799;50.844;5.304;2024-03-07T08:32:59;7.10;99.90
29939;DHT22;16799;50.844;5.304;2024-03-07T08:35:27;7.30;99.90
29939;DHT22;16799;50.844;5.304;2024-03-07T08:37:55;7.50;99.90
29939;DHT22;16799;50.844;5.304;2024-03-07T08:40:27;7.80;99.90
29939;DHT22;16799;50.844;5.304;2024-03-07T08:42:56;7.70;99.90
29939;DHT22;16799;50.844;5.304;2024-03-07T08:45:23;7.60;99.90
29939;DHT22;16799;50.844;5.304;2024-03-07T08:47:50;7.60;99.90
29939;DHT22;16799;50.844;5.304;2024-03-07T08:50:16;7.70;99.90
29939;DHT22;16799;50.844;5.304;2024-03-07T08:52:47;7.90;99.90
29939;DHT22;16799;50.844;5.304;2024-03-07T08:55:14;8.10;99.90
29939;DHT22;16799;50.844;5.304;2024-03-07T08:57:41;8.20;99.90
29939;DHT22;16799;50.844;5.304;2024-03-07T09:00:09;8.40;99.90
29939;DHT22;16799;50.844;5.304;2024-03-07T09:02:39;8.20;99.90
29939;DHT22;16799;50.844;5.304;2024-03-07T09:05:05;8.50;99.90
29939;DHT22;16799;50.844;5.304;2024-03-07T09:07:32;8.70;99.90
29939;DHT22;16799;50.844;5.304;2024-03-07T09:09:58;8.80;99.90
29939;DHT22;16799;50.844;5.304;2024-03-07T09:12:24;9.00;99.90
29939;DHT22;16799;50.844;5.304;2024-03-07T09:14:53;9.30;99.90
29939;DHT22;16799;50.844;5.304;2024-03-07T09:17:19;9.30;99.90
29939;DHT22;16799;50.844;5.304;2024-03-07T09:19:45;9.40;99.90
29939;DHT22;16799;50.844;5.304;2024-03-07T09:22:11;9.80;99.90
29939;DHT22;16799;50.844;5.304;2024-03-07T09:24:36;9.70;99.90
29939;DHT22;16799;50.844;5.304;2024-03-07T09:27:05;9.70;99.90
29939;DHT22;16799;50.844;5.304;2024-03-07T09:29:31;9.90;99.90
29939;DHT22;16799;50.844;5.304;2024-03-07T09:31:56;10.10;99.90
29939;DHT22;16799;50.844;5.304;2024-03-07T09:34:25;10.20;99.90
29939;DHT22;16799;50.844;5.304;2024-03-07T09:36:51;10.60;99.90
29939;DHT22;16799;50.844;5.304;2024-03-07T09:39:18;10.50;99.90
29939;DHT22;16799;50.844;5.304;2024-03-07T09:41:46;10.60;99.90
29939;DHT22;16799;50.844;5.304;2024-03-07T09:44:14;10.70;99.90
29939;DHT22;16799;50.844;5.304;2024-03-07T09:46:45;10.50;99.90
29939;DHT22;16799;50.844;5.304;2024-03-07T09:49:12;10.70;99.90
29939;DHT22;16799;50.844;5.304;2024-03-07T09:51:39;10.90;99.90
29939;DHT22;16799;50.844;5.304;2024-03-07T09:54:05;11.10;99.90
29939;DHT22;16799;50.844;5.304;2024-03-07T09:56:31;11.60;99.90
29939;DHT22;16799;50.844;5.304;2024-03-07T09:58:58;11.70;99.90
29939;DHT22;16799;50.844;5.304;2024-03-07T10:01:27;11.70;99.90
29939;DHT22;16799;50.844;5.304;2024-03-07T10:04:01;11.40;99.90
29939;DHT22;16799;50.844;5.304;2024-03-07T10:06:36;11.30;99.90
29939;DHT22;16799;50.844;5.304;2024-03-07T10:09:02;11.50;99.90
29939;DHT22;16799;50.844;5.304;2024-03-07T10:11:29;11.30;99.90
29939;DHT22;16799;50.844;5.304;2024-03-07T10:13:55;11.20;99.90
29939;DHT22;16799;50.844;5.304;2024-03-07T10:16:21;11.70;99.90
29939;DHT22;16799;50.844;5.304;2024-03-07T10:18:46;12.10;99.90
29939;DHT22;16799;50.844;5.304;2024-03-07T10:21:13;12.00;99.90
29939;DHT22;16799;50.844;5.304;2024-03-07T10:23:39;12.30;99.90
29939;DHT22;16799;50.844;5.304;2024-03-07T10:26:06;12.80;99.90
29939;DHT22;16799;50.844;5.304;2024-03-07T10:28:32;13.20;99.90
29939;DHT22;16799;50.844;5.304;2024-03-07T10:30:59;13.60;99.90
29939;DHT22;16799;50.844;5.304;2024-03-07T10:33:28;13.20;99.90
29939;DHT22;16799;50.844;5.304;2024-03-07T10:35:58;12.40;99.90
29939;DHT22;16799;50.844;5.304;2024-03-07T10:38:24;11.80;99.90
29939;DHT22;16799;50.844;5.304;2024-03-07T10:40:55;11.50;99.90
29939;DHT22;16799;50.844;5.304;2024-03-07T10:43:21;11.90;99.90
29939;DHT22;16799;50.844;5.304;2024-03-07T10:45:48;12.20;99.90
29939;DHT22;16799;50.844;5.304;2024-03-07T10:48:18;12.20;99.90
29939;DHT22;16799;50.844;5.304;2024-03-07T10:51:06;12.60;99.90
29939;DHT22;16799;50.844;5.304;2024-03-07T10:56:26;12.90;99.90
29939;DHT22;16799;50.844;5.304;2024-03-07T10:59:07;12.10;99.90
29939;DHT22;16799;50.844;5.304;2024-03-07T11:01:43;11.60;99.90
29939;DHT22;16799;50.844;5.304;2024-03-07T11:04:10;10.60;99.90
29939;DHT22;16799;50.844;5.304;2024-03-07T11:06:40;10.40;99.90
29939;DHT22;16799;50.844;5.304;2024-03-07T11:09:07;10.70;99.90
29939;DHT22;16799;50.844;5.304;2024-03-07T11:11:39;10.80;99.90
29939;DHT22;16799;50.844;5.304;2024-03-07T11:14:11;11.20;99.90
29939;DHT22;16799;50.844;5.304;2024-03-07T11:16:40;11.60;99.90
29939;DHT22;16799;50.844;5.304;2024-03-07T11:19:20;11.00;99.90
29939;DHT22;16799;50.844;5.304;2024-03-07T11:21:51;10.50;99.90
29939;DHT22;16799;50.844;5.304;2024-03-07T11:24:24;10.20;99.90
29939;DHT22;16799;50.844;5.304;2024-03-07T11:26:52;10.80;99.90
29939;DHT22;16799;50.844;5.304;2024-03-07T11:32:09;13.10;93.50
29939;DHT22;16799;50.844;5.304;2024-03-07T11:34:38;13.30;92.40
29939;DHT22;16799;50.844;5.304;2024-03-07T11:37:07;14.30;93.00
29939;DHT22;16799;50.844;5.304;2024-03-07T11:39:47;13.60;90.40
29939;DHT22;16799;50.844;5.304;2024-03-07T11:42:26;13.10;91.80
29939;DHT22;16799;50.844;5.304;2024-03-07T11:44:52;13.10;93.40
29939;DHT22;16799;50.844;5.304;2024-03-07T11:47:24;13.80;92.20
29939;DHT22;16799;50.844;5.304;2024-03-07T11:49:53;15.10;81.00
29939;DHT22;16799;50.844;5.304;2024-03-07T11:52:19;15.20;77.50
29939;DHT22;16799;50.844;5.304;2024-03-07T11:54:46;14.20;76.90
29939;DHT22;16799;50.844;5.304;2024-03-07T11:57:21;13.50;82.50
29939;DHT22;16799;50.844;5.304;2024-03-07T11:59:58;14.20;80.60
29939;DHT22;16799;50.844;5.304;2024-03-07T12:02:27;15.10;70.20
29939;DHT22;16799;50.844;5.304;2024-03-07T12:04:53;15.80;69.10
29939;DHT22;16799;50.844;5.304;2024-03-07T12:07:19;15.20;69.30
29939;DHT22;16799;50.844;5.304;2024-03-07T12:09:48;15.40;69.20
29939;DHT22;16799;50.844;5.304;2024-03-07T12:12:20;14.60;65.80
29939;DHT22;16799;50.844;5.304;2024-03-07T12:14:54;15.10;65.40
29939;DHT22;16799;50.844;5.304;2024-03-07T12:17:21;16.70;62.50
29939;DHT22;16799;50.844;5.304;2024-03-07T12:19:47;17.20;54.90
29939;DHT22;16799;50.844;5.304;2024-03-07T12:22:13;16.00;57.10
29939;DHT22;16799;50.844;5.304;2024-03-07T12:24:39;15.70;54.40
29939;DHT22;16799;50.844;5.304;2024-03-07T12:27:10;14.60;60.30
29939;DHT22;16799;50.844;5.304;2024-03-07T12:29:40;14.70;63.20
29939;DHT22;16799;50.844;5.304;2024-03-07T12:32:08;15.30;62.50
29939;DHT22;16799;50.844;5.304;2024-03-07T12:34:36;15.30;60.00
29939;DHT22;16799;50.844;5.304;2024-03-07T12:37:06;16.00;59.60
29939;DHT22;16799;50.844;5.304;2024-03-07T12:39:33;16.00;57.30
29939;DHT22;16799;50.844;5.304;2024-03-07T12:42:12;15.90;61.50
29939;DHT22;16799;50.844;5.304;2024-03-07T12:44:43;15.40;58.50
29939;DHT22;16799;50.844;5.304;2024-03-07T12:47:12;15.20;59.80
29939;DHT22;16799;50.844;5.304;2024-03-07T12:49:42;15.40;59.10
29939;DHT22;16799;50.844;5.304;2024-03-07T12:52:08;15.60;58.60
29939;DHT22;16799;50.844;5.304;2024-03-07T12:54:37;15.80;57.60
29939;DHT22;16799;50.844;5.304;2024-03-07T12:57:10;15.50;54.90
29939;DHT22;16799;50.844;5.304;2024-03-07T12:59:37;16.10;55.00
29939;DHT22;16799;50.844;5.304;2024-03-07T13:02:04;17.40;51.70
29939;DHT22;16799;50.844;5.304;2024-03-07T13:04:33;16.40;52.90
29939;DHT22;16799;50.844;5.304;2024-03-07T13:07:00;16.90;51.20
29939;DHT22;16799;50.844;5.304;2024-03-07T13:09:33;17.20;50.20
29939;DHT22;16799;50.844;5.304;2024-03-07T13:11:59;18.10;49.40
29939;DHT22;16799;50.844;5.304;2024-03-07T13:14:32;19.10;45.80
29939;DHT22;16799;50.844;5.304;2024-03-07T13:17:07;18.90;47.90
29939;DHT22;16799;50.844;5.304;2024-03-07T13:19:33;18.00;46.20
29939;DHT22;16799;50.844;5.304;2024-03-07T13:21:59;17.70;46.10
29939;DHT22;16799;50.844;5.304;2024-03-07T13:24:26;17.20;48.10
29939;DHT22;16799;50.844;5.304;2024-03-07T13:26:52;17.00;47.90
29939;DHT22;16799;50.844;5.304;2024-03-07T13:29:19;17.50;47.60
29939;DHT22;16799;50.844;5.304;2024-03-07T13:31:50;17.20;48.70
29939;DHT22;16799;50.844;5.304;2024-03-07T13:34:17;16.90;49.70
29939;DHT22;16799;50.844;5.304;2024-03-07T13:36:43;16.30;51.10
29939;DHT22;16799;50.844;5.304;2024-03-07T13:39:11;15.90;53.80
29939;DHT22;16799;50.844;5.304;2024-03-07T13:41:43;16.00;50.30
29939;DHT22;16799;50.844;5.304;2024-03-07T13:44:14;16.80;49.50
29939;DHT22;16799;50.844;5.304;2024-03-07T13:46:40;17.10;50.20
29939;DHT22;16799;50.844;5.304;2024-03-07T13:49:06;16.70;46.80
29939;DHT22;16799;50.844;5.304;2024-03-07T13:51:36;15.80;48.30
29939;DHT22;16799;50.844;5.304;2024-03-07T13:54:02;15.60;51.50
29939;DHT22;16799;50.844;5.304;2024-03-07T14:06:03;16.00;51.50
29939;DHT22;16799;50.844;5.304;2024-03-07T14:14:30;15.70;49.70
29939;DHT22;16799;50.844;5.304;2024-03-07T14:32:03;13.50;56.20
29939;DHT22;16799;50.844;5.304;2024-03-07T14:35:09;13.00;58.10
29939;DHT22;16799;50.844;5.304;2024-03-07T14:38:01;12.90;62.50
29939;DHT22;16799;50.844;5.304;2024-03-07T14:40:28;13.10;64.30
29939;DHT22;16799;50.844;5.304;2024-03-07T14:42:55;12.70;59.60
29939;DHT22;16799;50.844;5.304;2024-03-07T14:45:26;12.50;63.20
29939;DHT22;16799;50.844;5.304;2024-03-07T14:47:54;12.50;62.40
29939;DHT22;16799;50.844;5.304;2024-03-07T14:50:21;12.30;67.60
29939;DHT22;16799;50.844;5.304;2024-03-07T14:52:48;12.20;71.50
29939;DHT22;16799;50.844;5.304;2024-03-07T14:55:14;12.20;69.30
29939;DHT22;16799;50.844;5.304;2024-03-07T14:57:40;12.40;81.60
29939;DHT22;16799;50.844;5.304;2024-03-07T15:00:09;12.40;73.60
29939;DHT22;16799;50.844;5.304;2024-03-07T15:02:48;12.20;74.80
29939;DHT22;16799;50.844;5.304;2024-03-07T15:05:18;12.00;72.50
29939;DHT22;16799;50.844;5.304;2024-03-07T15:07:48;11.70;78.30
29939;DHT22;16799;50.844;5.304;2024-03-07T15:12:47;11.70;81.90
29939;DHT22;16799;50.844;5.304;2024-03-07T15:15:14;11.70;79.60
29939;DHT22;16799;50.844;5.304;2024-03-07T15:17:41;11.60;81.30
29939;DHT22;16799;50.844;5.304;2024-03-07T15:20:11;11.70;84.40
29939;DHT22;16799;50.844;5.304;2024-03-07T15:23:08;11.90;79.70
29939;DHT22;16799;50.844;5.304;2024-03-07T15:25:33;11.60;78.60
29939;DHT22;16799;50.844;5.304;2024-03-07T15:28:03;11.80;81.20
29939;DHT22;16799;50.844;5.304;2024-03-07T15:30:29;11.70;85.50
29939;DHT22;16799;50.844;5.304;2024-03-07T15:33:00;11.50;78.00
29939;DHT22;16799;50.844;5.304;2024-03-07T15:35:26;11.30;84.30
29939;DHT22;16799;50.844;5.304;2024-03-07T15:37:52;11.20;87.90
29939;DHT22;16799;50.844;5.304;2024-03-07T15:40:19;11.40;84.70
29939;DHT22;16799;50.844;5.304;2024-03-07T15:42:47;11.30;83.10
29939;DHT22;16799;50.844;5.304;2024-03-07T15:45:18;11.60;85.20
29939;DHT22;16799;50.844;5.304;2024-03-07T15:47:52;11.50;77.40
29939;DHT22;16799;50.844;5.304;2024-03-07T15:50:19;11.60;79.40
29939;DHT22;16799;50.844;5.304;2024-03-07T15:52:49;11.80;74.60
29939;DHT22;16799;50.844;5.304;2024-03-07T15:55:19;11.70;73.70
29939;DHT22;16799;50.844;5.304;2024-03-07T15:57:53;11.70;79.40
29939;DHT22;16799;50.844;5.304;2024-03-07T16:00:28;12.00;76.00
29939;DHT22;16799;50.844;5.304;2024-03-07T16:05:23;11.30;83.80
29939;DHT22;16799;50.844;5.304;2024-03-07T16:07:50;11.40;80.80
29939;DHT22;16799;50.844;5.304;2024-03-07T16:10:16;11.40;81.80
29939;DHT22;16799;50.844;5.304;2024-03-07T16:12:42;11.40;75.60
29939;DHT22;16799;50.844;5.304;2024-03-07T16:15:08;11.30;77.90
29939;DHT22;16799;50.844;5.304;2024-03-07T16:17:35;11.10;79.80
29939;DHT22;16799;50.844;5.304;2024-03-07T16:20:03;11.10;86.10
29939;DHT22;16799;50.844;5.304;2024-03-07T16:22:47;11.30;83.00
29939;DHT22;16799;50.844;5.304;2024-03-07T16:25:17;11.40;79.50